Weather History for Unalakleet, AK

Change the Weather History Date:

Sunday, June 23, 2013

  Actual Average Record
Temperature  
Mean Temperature 56 °F -  
Max Temperature 62 °F 56 °F 75 °F (1952)
Min Temperature 51 °F 42 °F 36 °F (1977)
Degree Days  
Heating Degree Days 8    
Growing Degree Days 6 (Base 50)    
Moisture  
Dew Point 45 °F    
Average Humidity 64    
Maximum Humidity 82    
Minimum Humidity 42    
Precipitation  
Precipitation 0.00 in - - ()
Sea Level Pressure  
Sea Level Pressure 29.70 in    
Wind  
Wind Speed 6 mph (NNW)    
Max Wind Speed 15 mph    
Max Gust Speed -    
Visibility 10 miles    
Events      
Averages and records for this station are not official NWS values.
T = Trace of Precipitation, MM = Missing Value Source: NWS Daily Summary

Daily Weather History Graph

Daily Weather History Graph

Search for Another Location

Airport:

Trip Planner

Search our weather history database for the weather conditions in past years. The results will help you decide how hot, cold, wet, or windy it might be!

Date:

Astronomy

Jun. 23, 2013 Rise Set
Actual Time 4:17 AM AKDT 1:12 AM AKDT
Civil Twilight Sun does not rise Sun does not rise
Nautical Twilight Sun does not rise Sun does not rise
Astronomical Twilight Sun does not rise Sun does not rise
Moon No Moon Rise 5:42 AM AKDT
Length of Visible Light 24h 00m
Length of Day
20h 54m
Full, 100% of the Moon is Illuminated
Jun 23
Full
Jun 29
Last Quarter
Jul 7
New
Jul 15
First Quarter
Jul 22
Full

Hourly Weather History & Observations

Time (AKDT) Temp. Dew Point Humidity Pressure Visibility Wind Dir Wind Speed Gust Speed Precip Events Conditions
12:16 AM 57.2 °F 44.6 °F 63% 29.67 in 10.0 mi South 4.6 mph - N/A   Mostly Cloudy
12:36 AM 57.2 °F 44.6 °F 63% 29.67 in 10.0 mi ENE 4.6 mph - N/A   Overcast
12:56 AM 57.2 °F 42.8 °F 59% 29.67 in 5.0 mi ENE 4.6 mph - N/A   Overcast
1:16 AM 55.4 °F 42.8 °F 63% 29.68 in 10.0 mi East 4.6 mph - N/A   Mostly Cloudy
1:36 AM 57.2 °F 41.0 °F 55% 29.67 in 10.0 mi Calm Calm - N/A   Mostly Cloudy
1:56 AM 55.4 °F 42.8 °F 63% 29.67 in 10.0 mi ENE 3.5 mph - N/A   Mostly Cloudy
2:16 AM 55.4 °F 42.8 °F 63% 29.68 in 10.0 mi Calm Calm - N/A   Mostly Cloudy
2:36 AM 55.4 °F 42.8 °F 63% 29.69 in 10.0 mi Calm Calm - N/A   Overcast
2:56 AM 53.6 °F 42.8 °F 67% 29.69 in 10.0 mi SSE 4.6 mph - N/A   Mostly Cloudy
3:16 AM 53.6 °F 42.8 °F 67% 29.69 in 10.0 mi ESE 6.9 mph - N/A   Mostly Cloudy
3:36 AM 53.6 °F 42.8 °F 67% 29.70 in 10.0 mi SSE 5.8 mph - N/A   Overcast
3:56 AM 55.4 °F 41.0 °F 58% 29.70 in 10.0 mi South 5.8 mph - N/A   Overcast
4:16 AM 53.6 °F 42.8 °F 67% 29.70 in 10.0 mi ENE 3.5 mph - N/A   Overcast
4:36 AM 53.6 °F 42.8 °F 67% 29.70 in 10.0 mi Calm Calm - N/A   Overcast
4:56 AM 51.8 °F 44.6 °F 76% 29.70 in 10.0 mi ENE 3.5 mph - N/A   Overcast
5:16 AM 53.6 °F 42.8 °F 67% 29.70 in 10.0 mi East 6.9 mph - N/A   Overcast
5:36 AM 53.6 °F 41.0 °F 62% 29.70 in 10.0 mi East 6.9 mph - N/A   Overcast
5:56 AM 53.6 °F 41.0 °F 62% 29.70 in 10.0 mi SE 4.6 mph - N/A   Overcast
6:16 AM 53.6 °F 42.8 °F 67% 29.71 in 10.0 mi East 4.6 mph - N/A   Overcast
6:36 AM 53.6 °F 41.0 °F 62% 29.71 in 10.0 mi Calm Calm - N/A   Overcast
6:56 AM 53.6 °F 42.8 °F 67% 29.71 in 10.0 mi Calm Calm - N/A   Overcast
7:16 AM 53.6 °F 42.8 °F 67% 29.71 in 10.0 mi Calm Calm - N/A   Overcast
7:36 AM 53.6 °F 42.8 °F 67% 29.71 in 10.0 mi Calm Calm - N/A   Overcast
7:56 AM 53.6 °F 44.6 °F 72% 29.71 in 10.0 mi Calm Calm - N/A   Scattered Clouds
8:16 AM 55.4 °F 44.6 °F 67% 29.71 in 10.0 mi SE 4.6 mph - N/A   Mostly Cloudy
8:36 AM 53.6 °F 44.6 °F 72% 29.71 in 5.0 mi SE 4.6 mph - N/A   Mostly Cloudy
8:56 AM 55.4 °F 44.6 °F 67% 29.71 in 2.5 mi SE 4.6 mph - N/A   Mostly Cloudy
9:16 AM 55.4 °F 44.6 °F 67% 29.72 in 2.5 mi SE 3.5 mph - N/A   Overcast
9:36 AM 57.2 °F 44.6 °F 63% 29.72 in 3.0 mi Calm Calm - N/A   Overcast
9:56 AM 57.2 °F 42.8 °F 59% 29.72 in 5.0 mi Calm Calm - N/A   Overcast
10:16 AM 59.0 °F 42.8 °F 55% 29.72 in 8.0 mi North 3.5 mph - N/A   Overcast
10:36 AM 60.8 °F 41.0 °F 48% 29.71 in 10.0 mi North 5.8 mph - N/A   Overcast
10:56 AM 60.8 °F 39.2 °F 45% 29.71 in 10.0 mi NNW 3.5 mph - N/A   Overcast
11:16 AM 60.8 °F 39.2 °F 45% 29.71 in 10.0 mi Calm Calm - N/A   Mostly Cloudy
11:36 AM 62.6 °F 39.2 °F 42% 29.71 in 10.0 mi NW 6.9 mph - N/A   Mostly Cloudy
11:56 AM 60.8 °F 42.8 °F 52% 29.71 in 10.0 mi NW 6.9 mph - N/A   Overcast
12:16 PM 60.8 °F 44.6 °F 55% 29.71 in 10.0 mi NW 8.1 mph - N/A   Overcast
12:36 PM 59.0 °F 44.6 °F 59% 29.71 in 10.0 mi NNW 9.2 mph - N/A   Overcast
12:56 PM 59.0 °F 48.2 °F 67% 29.72 in 10.0 mi NNW 11.5 mph - N/A   Mostly Cloudy
1:16 PM 59.0 °F 48.2 °F 67% 29.72 in 10.0 mi NW 11.5 mph - N/A   Scattered Clouds
1:36 PM 59.0 °F 46.4 °F 63% 29.72 in 10.0 mi NNW 12.7 mph - N/A   Partly Cloudy
1:56 PM 60.8 °F 46.4 °F 59% 29.72 in 10.0 mi NNW 12.7 mph - N/A   Clear
2:16 PM 60.8 °F 46.4 °F 59% 29.71 in 10.0 mi NW 13.8 mph - N/A   Clear
2:36 PM 60.8 °F 48.2 °F 63% 29.71 in 10.0 mi NW 12.7 mph - N/A   Clear
2:56 PM 60.8 °F 48.2 °F 63% 29.71 in 10.0 mi NW 11.5 mph - N/A   Clear
3:16 PM 60.8 °F 48.2 °F 63% 29.70 in 10.0 mi NNW 12.7 mph - N/A   Clear
3:36 PM 60.8 °F 48.2 °F 63% 29.70 in 10.0 mi NW 12.7 mph - N/A   Clear
3:56 PM 60.8 °F 48.2 °F 63% 29.71 in 10.0 mi NW 12.7 mph - N/A   Partly Cloudy
4:16 PM 60.8 °F 48.2 °F 63% 29.70 in 10.0 mi NNW 13.8 mph - N/A   Scattered Clouds
4:36 PM 60.8 °F 48.2 °F 63% 29.70 in 10.0 mi NW 12.7 mph - N/A   Clear
4:56 PM 60.8 °F 48.2 °F 63% 29.70 in 10.0 mi NW 12.7 mph - N/A   Clear
5:16 PM 60.8 °F 48.2 °F 63% 29.70 in 10.0 mi NW 11.5 mph - N/A   Clear
5:36 PM 60.8 °F 51.8 °F 72% 29.70 in 10.0 mi NW 11.5 mph - N/A   Clear
5:56 PM 60.8 °F 50.0 °F 68% 29.70 in 10.0 mi NW 12.7 mph - N/A   Clear
6:16 PM 60.8 °F 50.0 °F 68% 29.70 in 10.0 mi NNW 13.8 mph - N/A   Clear
6:36 PM 60.8 °F 46.4 °F 59% 29.70 in 10.0 mi NNW 13.8 mph - N/A   Clear
6:56 PM 60.8 °F 46.4 °F 59% 29.70 in 10.0 mi NNW 13.8 mph - N/A   Clear
7:16 PM 60.8 °F 46.4 °F 59% 29.70 in 10.0 mi NNW 15.0 mph - N/A   Clear
7:36 PM 60.8 °F 48.2 °F 63% 29.70 in 10.0 mi NW 12.7 mph - N/A   Clear
7:56 PM 60.8 °F 48.2 °F 63% 29.70 in 10.0 mi NNW 12.7 mph - N/A   Clear
8:16 PM 59.0 °F 48.2 °F 67% 29.70 in 10.0 mi NNW 13.8 mph - N/A   Clear
8:36 PM 60.8 °F 46.4 °F 59% 29.70 in 10.0 mi NW 15.0 mph - N/A   Clear
8:56 PM 60.8 °F 46.4 °F 59% 29.70 in 10.0 mi NNW 12.7 mph - N/A   Clear
9:16 PM 60.8 °F 48.2 °F 63% 29.70 in 10.0 mi NW 12.7 mph - N/A   Clear
9:36 PM 60.8 °F 48.2 °F 63% 29.71 in 10.0 mi NW 12.7 mph - N/A   Clear
9:56 PM 59.0 °F 48.2 °F 67% 29.70 in 10.0 mi NW 11.5 mph - N/A   Clear
10:16 PM 59.0 °F 48.2 °F 67% 29.71 in 10.0 mi NW 10.4 mph - N/A   Clear
10:36 PM 57.2 °F 50.0 °F 77% 29.71 in 10.0 mi WNW 8.1 mph - N/A   Partly Cloudy
10:56 PM 57.2 °F 50.0 °F 77% 29.71 in 10.0 mi WNW 6.9 mph - N/A   Clear
11:16 PM 57.2 °F 50.0 °F 77% 29.72 in 10.0 mi WNW 5.8 mph - N/A   Clear
11:36 PM 57.2 °F 51.8 °F 82% 29.72 in 10.0 mi WSW 5.8 mph - N/A   Clear
11:56 PM 57.2 °F 50.0 °F 77% 29.72 in 10.0 mi SW 6.9 mph - N/A   Clear